Accueil
METAR-TAF:

METAR-TAF

Aéroports :

Aéroport de Francfort-Hahn

Hahn, Allemagne

latitude: 49-57N, longitude: 007-16E, altitude: 491 m

Observation

Le bulletin a été fait il y a 12 minutes, à 22:50 UTC
Vent 4 kt de ouest/nord-ouest
Température 14°C
Humidité 82%
Pression 1022 hPa
Visibilité 10 km ou plus
pas de nuages en-dessous de 1500 mètres et pas de cumulonimbus.

METAR: EDFH 172250Z 30004KT CAVOK 14/11 Q1022

Heure: 01:02 (23:02 UTC)

Prévision

Le bulletin a été fait il y a 6 heures et 2 minutes, à 17:00 UTC
Prévision valable du 17 à 18 UTC au 18 à 18 UTC
Vent 8 kt de nord
Visibilité 10 km ou plus
Nuages fragmentés à une hauteur de 2000 ft
Evoluant progressivement
du 17 à 20 UTC au 17 à 22 UTC
Vent 5 kt de ouest/nord-ouest

TAF: EDFH 171700Z 1718/1818 35008KT 9999 BKN020 BECMG 1720/1722 29005KT

Observations et prévisions météorologiques de plus de 4000 aéroports (messages METAR et TAF).

Les stations disponibles sont représentées par des disques jaunes et rouges sur la carte.

Passer la souris dessus pour voir le nom de la station.

Cliquer dessus pour voir les observations et prévisions météorologiques.

Pour changer de carte: cliquez sur les boutons verts avec une croix noire pour zoomer, sur le bouton vert avec un tiret pour effectuer un zoom arrière, ou sur les flèches vertes pour les cartes adjacentes.


METAR-TAF: